createdAt,value
2017-05-07T00:00:20.681Z,0
2017-05-07T00:01:33.210Z,0
2017-05-07T00:02:45.760Z,0
2017-05-07T00:03:57.986Z,0
2017-05-07T00:05:10.540Z,0
2017-05-07T00:06:22.822Z,0
2017-05-07T00:07:35.347Z,0
2017-05-07T00:08:47.588Z,0
2017-05-07T00:10:00.124Z,0
2017-05-07T00:11:12.358Z,0
2017-05-07T00:12:24.303Z,0
2017-05-07T00:13:36.850Z,0
2017-05-07T00:14:49.091Z,0
2017-05-07T00:16:01.633Z,0
2017-05-07T00:17:13.885Z,0
2017-05-07T00:18:26.421Z,0
2017-05-07T00:19:38.654Z,0
2017-05-07T00:20:51.195Z,0
2017-05-07T00:22:03.420Z,0
2017-05-07T00:23:15.661Z,0
2017-05-07T00:24:27.561Z,0
2017-05-07T00:25:39.783Z,0
2017-05-07T00:26:52.330Z,0
2017-05-07T00:28:04.574Z,0
2017-05-07T00:29:16.813Z,0
2017-05-07T00:30:29.066Z,0
2017-05-07T00:31:41.653Z,0
2017-05-07T00:32:54.184Z,0
2017-05-07T00:34:06.729Z,0
2017-05-07T00:35:19.266Z,0
2017-05-07T00:36:31.517Z,0
2017-05-07T00:37:44.041Z,0
2017-05-07T00:38:56.587Z,0
2017-05-07T00:40:09.125Z,0
2017-05-07T00:41:21.678Z,0
2017-05-07T00:42:34.250Z,0
2017-05-07T00:43:46.811Z,0
2017-05-07T00:44:59.366Z,0
2017-05-07T00:46:11.584Z,0
2017-05-07T00:47:23.784Z,0
2017-05-07T00:48:36.344Z,0
2017-05-07T00:49:48.897Z,0
2017-05-07T00:51:01.418Z,0
2017-05-07T00:52:13.642Z,0
2017-05-07T00:53:25.878Z,0
2017-05-07T00:54:38.407Z,0
2017-05-07T00:55:50.955Z,0
2017-05-07T00:57:03.481Z,0
2017-05-07T00:58:15.715Z,0
2017-05-07T00:59:27.920Z,0
2017-05-07T01:00:40.135Z,0
2017-05-07T01:01:52.681Z,0
2017-05-07T01:03:04.905Z,0
2017-05-07T01:04:16.854Z,0
2017-05-07T01:05:29.093Z,0
2017-05-07T01:06:41.332Z,0
2017-05-07T01:07:53.586Z,0
2017-05-07T01:09:06.110Z,0
2017-05-07T01:10:18.645Z,0
2017-05-07T01:11:31.173Z,0
2017-05-07T01:12:43.703Z,0
2017-05-07T01:13:56.237Z,0
2017-05-07T01:15:09.081Z,0
2017-05-07T01:16:20.989Z,0
2017-05-07T01:17:32.633Z,0
2017-05-07T01:18:45.193Z,0
2017-05-07T01:19:57.424Z,0
2017-05-07T01:21:09.663Z,0
2017-05-07T01:22:21.879Z,0
2017-05-07T01:23:34.414Z,0
2017-05-07T01:24:46.947Z,0
2017-05-07T01:25:59.478Z,0
2017-05-07T01:27:12.050Z,0
2017-05-07T01:28:24.298Z,0
2017-05-07T01:29:36.562Z,0
2017-05-07T01:30:48.811Z,0
2017-05-07T01:32:01.358Z,0
2017-05-07T01:33:13.600Z,0
2017-05-07T01:34:25.845Z,0
2017-05-07T01:35:37.772Z,0
2017-05-07T01:36:50.291Z,0
2017-05-07T01:38:02.252Z,0
2017-05-07T01:39:14.511Z,0
2017-05-07T01:40:26.746Z,0
2017-05-07T01:41:38.993Z,0
2017-05-07T01:42:51.534Z,0
2017-05-07T01:44:04.063Z,0
2017-05-07T01:45:16.305Z,0
2017-05-07T01:46:28.530Z,0
2017-05-07T01:47:41.078Z,0
2017-05-07T01:48:53.600Z,0
2017-05-07T01:50:06.186Z,0
2017-05-07T01:51:18.417Z,0
2017-05-07T01:52:30.359Z,0
2017-05-07T01:53:42.585Z,0
2017-05-07T01:54:54.848Z,0
2017-05-07T01:56:07.373Z,0
2017-05-07T01:57:19.572Z,0
2017-05-07T01:58:32.368Z,0
2017-05-07T01:59:44.928Z,0
2017-05-07T02:00:57.481Z,0
2017-05-07T02:02:10.034Z,0
2017-05-07T02:03:22.526Z,0
2017-05-07T02:04:35.072Z,0
2017-05-07T02:05:47.641Z,0
2017-05-07T02:07:00.169Z,0
2017-05-07T02:08:12.713Z,0
2017-05-07T02:09:24.952Z,0
2017-05-07T02:10:37.480Z,0
2017-05-07T02:11:49.995Z,0
2017-05-07T02:13:02.571Z,0
2017-05-07T02:14:14.517Z,0
2017-05-07T02:15:27.083Z,0
2017-05-07T02:16:39.307Z,0
2017-05-07T02:17:51.853Z,0
2017-05-07T02:19:04.399Z,0
2017-05-07T02:20:16.640Z,0
2017-05-07T02:21:28.879Z,0
2017-05-07T02:22:41.110Z,0
2017-05-07T02:23:53.671Z,0
2017-05-07T02:25:06.219Z,0
2017-05-07T02:26:18.466Z,0
2017-05-07T02:27:30.696Z,0
2017-05-07T02:28:43.242Z,0
2017-05-07T02:29:55.502Z,0
2017-05-07T02:31:08.038Z,0
2017-05-07T02:32:20.599Z,0
2017-05-07T02:33:32.824Z,0
2017-05-07T02:34:45.084Z,0
2017-05-07T02:35:57.630Z,0
2017-05-07T02:37:10.150Z,0
2017-05-07T02:38:22.705Z,0
2017-05-07T02:39:34.943Z,0
2017-05-07T02:40:47.465Z,0
2017-05-07T02:41:59.948Z,0
2017-05-07T02:43:12.490Z,0
2017-05-07T02:44:24.729Z,0
2017-05-07T02:45:37.250Z,0
2017-05-07T02:46:49.797Z,0
2017-05-07T02:48:02.323Z,0
2017-05-07T02:49:14.844Z,0
2017-05-07T02:50:27.368Z,0
2017-05-07T02:51:39.915Z,0
2017-05-07T02:52:52.434Z,0
2017-05-07T02:54:04.656Z,0
2017-05-07T02:55:17.201Z,0
2017-05-07T02:56:29.421Z,0
2017-05-07T02:57:41.666Z,0
2017-05-07T02:58:54.186Z,0
2017-05-07T03:00:06.726Z,0
2017-05-07T03:01:19.007Z,0
2017-05-07T03:02:31.551Z,0
2017-05-07T03:03:43.775Z,0
2017-05-07T03:04:56.307Z,0
2017-05-07T03:06:08.841Z,0
2017-05-07T03:07:21.088Z,0
2017-05-07T03:08:33.619Z,0
2017-05-07T03:09:45.855Z,0
2017-05-07T03:10:58.369Z,0
2017-05-07T03:12:10.598Z,0
2017-05-07T03:13:22.858Z,0
2017-05-07T03:14:35.402Z,0
2017-05-07T03:15:47.957Z,0
2017-05-07T03:17:00.474Z,0
2017-05-07T03:18:12.694Z,0
2017-05-07T03:19:25.218Z,0
2017-05-07T03:20:37.779Z,0
2017-05-07T03:21:50.304Z,0
2017-05-07T03:23:02.832Z,0
2017-05-07T03:24:15.073Z,0
2017-05-07T03:25:27.611Z,5
2017-05-07T03:26:39.841Z,5
2017-05-07T03:27:52.390Z,5
2017-05-07T03:29:04.953Z,5
2017-05-07T03:30:17.498Z,5
2017-05-07T03:31:30.025Z,5
2017-05-07T03:32:42.566Z,5
2017-05-07T03:33:55.111Z,5
2017-05-07T03:35:07.315Z,5
2017-05-07T03:36:19.853Z,5
2017-05-07T03:37:32.083Z,10
2017-05-07T03:38:44.616Z,10
2017-05-07T03:39:57.123Z,10
2017-05-07T03:41:09.642Z,10
2017-05-07T03:42:22.166Z,10
2017-05-07T03:43:34.426Z,10
2017-05-07T03:44:46.929Z,10
2017-05-07T03:45:59.450Z,10
2017-05-07T03:47:11.987Z,15
2017-05-07T03:48:24.221Z,15
2017-05-07T03:49:36.755Z,15
2017-05-07T03:50:49.288Z,15
2017-05-07T03:52:01.829Z,15
2017-05-07T03:53:14.353Z,15
2017-05-07T03:54:26.567Z,15
2017-05-07T03:55:38.767Z,15
2017-05-07T03:56:50.994Z,20
2017-05-07T03:58:03.527Z,20
2017-05-07T03:59:16.075Z,20
2017-05-07T04:00:28.601Z,20
2017-05-07T04:01:40.839Z,25
2017-05-07T04:02:53.390Z,25
2017-05-07T04:04:05.892Z,30
2017-05-07T04:05:18.113Z,30
2017-05-07T04:06:30.661Z,35
2017-05-07T04:07:43.227Z,40
2017-05-07T04:08:55.973Z,40
2017-05-07T04:10:08.511Z,45
2017-05-07T04:11:20.756Z,50
2017-05-07T04:12:33.006Z,55
2017-05-07T04:13:45.551Z,55
2017-05-07T04:14:58.098Z,55
2017-05-07T04:16:10.630Z,60
2017-05-07T04:17:22.887Z,60
2017-05-07T04:18:35.411Z,60
2017-05-07T04:19:47.941Z,60
2017-05-07T04:21:00.461Z,65
2017-05-07T04:22:12.999Z,65
2017-05-07T04:23:25.523Z,65
2017-05-07T04:24:38.037Z,65
2017-05-07T04:25:50.582Z,60
2017-05-07T04:27:03.112Z,60
2017-05-07T04:28:15.660Z,65
2017-05-07T04:29:28.199Z,65
2017-05-07T04:30:41.042Z,65
2017-05-07T04:31:53.599Z,65
2017-05-07T04:33:06.121Z,70
2017-05-07T04:34:18.682Z,75
2017-05-07T04:35:31.483Z,80
2017-05-07T04:36:43.713Z,90
2017-05-07T04:37:55.942Z,90
2017-05-07T04:39:08.463Z,95
2017-05-07T04:40:20.996Z,100
2017-05-07T04:41:33.841Z,110
2017-05-07T04:42:46.361Z,120
2017-05-07T04:43:58.931Z,130
2017-05-07T04:45:11.452Z,135
2017-05-07T04:46:24.032Z,140
2017-05-07T04:47:36.572Z,140
2017-05-07T04:48:49.166Z,145
2017-05-07T04:50:01.410Z,145
2017-05-07T04:51:13.930Z,150
2017-05-07T04:52:26.504Z,150
2017-05-07T04:53:39.067Z,155
2017-05-07T04:54:51.640Z,155
2017-05-07T04:56:04.164Z,160
2017-05-07T04:57:16.666Z,165
2017-05-07T04:58:29.205Z,170
2017-05-07T04:59:41.718Z,170
2017-05-07T05:00:54.266Z,170
2017-05-07T05:02:06.496Z,170
2017-05-07T05:03:19.338Z,165
2017-05-07T05:04:31.862Z,165
2017-05-07T05:05:44.405Z,165
2017-05-07T05:06:56.976Z,170
2017-05-07T05:08:09.500Z,175
2017-05-07T05:09:21.121Z,180
2017-05-07T05:10:33.360Z,185
2017-05-07T05:11:45.939Z,190
2017-05-07T05:12:58.476Z,200
2017-05-07T05:14:10.722Z,215
2017-05-07T05:15:22.966Z,225
2017-05-07T05:16:35.174Z,235
2017-05-07T05:17:47.719Z,240
2017-05-07T05:19:00.277Z,245
2017-05-07T05:20:12.488Z,250
2017-05-07T05:21:25.030Z,250
2017-05-07T05:22:37.268Z,250
2017-05-07T05:23:49.802Z,250
2017-05-07T05:25:02.615Z,250
2017-05-07T05:26:14.254Z,250
2017-05-07T05:27:26.803Z,250
2017-05-07T05:28:39.049Z,255
2017-05-07T05:29:51.597Z,265
2017-05-07T05:31:04.141Z,270
2017-05-07T05:32:16.668Z,275
2017-05-07T05:33:29.214Z,285
2017-05-07T05:34:41.407Z,290
2017-05-07T05:35:53.949Z,300
2017-05-07T05:37:06.491Z,310
2017-05-07T05:38:18.995Z,325
2017-05-07T05:39:31.520Z,325
2017-05-07T05:40:44.082Z,310
2017-05-07T05:41:56.583Z,325
2017-05-07T05:43:09.135Z,345
2017-05-07T05:44:21.392Z,370
2017-05-07T05:45:33.929Z,400
2017-05-07T05:46:46.187Z,435
2017-05-07T05:47:58.691Z,435
2017-05-07T05:49:11.253Z,430
2017-05-07T05:50:23.479Z,430
2017-05-07T05:51:36.001Z,455
2017-05-07T05:52:48.546Z,460
2017-05-07T05:54:01.070Z,445
2017-05-07T05:55:13.312Z,430
2017-05-07T05:56:25.837Z,445
2017-05-07T05:57:38.625Z,405
2017-05-07T05:58:51.180Z,355
2017-05-07T06:00:03.714Z,320
2017-05-07T06:01:16.268Z,320
2017-05-07T06:02:28.523Z,320
2017-05-07T06:03:41.036Z,295
2017-05-07T06:04:53.233Z,295
2017-05-07T06:06:05.781Z,265
2017-05-07T06:07:18.053Z,205
2017-05-07T06:08:30.599Z,220
2017-05-07T06:09:43.143Z,245
2017-05-07T06:10:55.077Z,235
2017-05-07T06:12:07.598Z,205
2017-05-07T06:13:20.155Z,185
2017-05-07T06:14:32.725Z,210
2017-05-07T06:15:44.944Z,165
2017-05-07T06:16:57.186Z,160
2017-05-07T06:18:09.739Z,190
2017-05-07T06:19:21.981Z,190
2017-05-07T06:20:34.507Z,230
2017-05-07T06:21:46.722Z,250
2017-05-07T06:22:59.249Z,260
2017-05-07T06:24:11.793Z,265
2017-05-07T06:25:24.010Z,290
2017-05-07T06:26:35.926Z,305
2017-05-07T06:27:48.153Z,310
2017-05-07T06:29:00.694Z,390
2017-05-07T06:30:13.219Z,395
2017-05-07T06:31:25.444Z,435
2017-05-07T06:32:38.006Z,535
2017-05-07T06:33:49.953Z,505
2017-05-07T06:35:02.481Z,365
2017-05-07T06:36:14.724Z,410
2017-05-07T06:37:26.962Z,390
2017-05-07T06:38:39.182Z,340
2017-05-07T06:39:51.711Z,410
2017-05-07T06:41:04.553Z,500
2017-05-07T06:42:16.178Z,600
2017-05-07T06:43:28.718Z,705
2017-05-07T06:44:40.648Z,820
2017-05-07T06:45:53.183Z,830
2017-05-07T06:47:05.689Z,905
2017-05-07T06:48:18.209Z,780
2017-05-07T06:49:30.457Z,655
2017-05-07T06:50:42.950Z,485
2017-05-07T06:51:55.488Z,430
2017-05-07T06:53:07.994Z,415
2017-05-07T06:54:19.913Z,480
2017-05-07T06:55:32.461Z,545
2017-05-07T06:56:45.007Z,430
2017-05-07T06:57:57.550Z,355
2017-05-07T06:59:09.804Z,395
2017-05-07T07:00:22.397Z,395
2017-05-07T07:01:34.892Z,470
2017-05-07T07:02:47.152Z,420
2017-05-07T07:03:59.679Z,320
2017-05-07T07:05:11.901Z,335
2017-05-07T07:06:23.827Z,370
2017-05-07T07:07:36.343Z,295
2017-05-07T07:08:48.863Z,235
2017-05-07T07:10:01.413Z,240
2017-05-07T07:11:13.961Z,295
2017-05-07T07:12:26.205Z,365
2017-05-07T07:13:38.426Z,460
2017-05-07T07:14:50.668Z,595
2017-05-07T07:16:03.192Z,620
2017-05-07T07:17:15.414Z,615
2017-05-07T07:18:27.949Z,735
2017-05-07T07:19:40.477Z,955
2017-05-07T07:20:52.718Z,980
2017-05-07T07:22:05.264Z,1200
2017-05-07T07:23:17.196Z,1235
2017-05-07T07:24:29.740Z,1455
2017-05-07T07:25:42.260Z,1655
2017-05-07T07:26:54.777Z,1690
2017-05-07T07:28:07.015Z,2050
2017-05-07T07:29:19.244Z,1355
2017-05-07T07:30:31.190Z,1210
2017-05-07T07:31:43.419Z,1165
2017-05-07T07:32:55.958Z,1140
2017-05-07T07:34:08.199Z,1125
2017-05-07T07:35:20.149Z,1170
2017-05-07T07:36:32.687Z,955
2017-05-07T07:37:45.191Z,825
2017-05-07T07:38:57.733Z,790
2017-05-07T07:40:09.979Z,780
2017-05-07T07:41:22.222Z,785
2017-05-07T07:42:34.433Z,780
2017-05-07T07:43:46.649Z,795
2017-05-07T07:44:59.191Z,845
2017-05-07T07:46:12.032Z,860
2017-05-07T07:47:24.583Z,850
2017-05-07T07:48:37.106Z,800
2017-05-07T07:49:49.325Z,755
2017-05-07T07:51:01.925Z,725
2017-05-07T07:52:14.172Z,690
2017-05-07T07:53:26.710Z,685
2017-05-07T07:54:38.991Z,700
2017-05-07T07:55:51.512Z,660
2017-05-07T07:57:04.047Z,610
2017-05-07T07:58:16.573Z,565
2017-05-07T07:59:28.860Z,530
2017-05-07T08:00:41.387Z,555
2017-05-07T08:01:53.930Z,590
2017-05-07T08:03:06.481Z,605
2017-05-07T08:04:19.018Z,635
2017-05-07T08:05:31.246Z,685
2017-05-07T08:06:43.799Z,730
2017-05-07T08:07:56.318Z,735
2017-05-07T08:09:08.887Z,725
2017-05-07T08:10:21.426Z,720
2017-05-07T08:11:33.981Z,710
2017-05-07T08:12:46.201Z,845
2017-05-07T08:13:58.118Z,945
2017-05-07T08:15:10.345Z,860
2017-05-07T08:16:22.585Z,905
2017-05-07T08:17:34.834Z,1060
2017-05-07T08:18:47.656Z,1110
2017-05-07T08:20:00.193Z,935
2017-05-07T08:21:12.414Z,810
2017-05-07T08:22:24.665Z,745
2017-05-07T08:23:37.206Z,770
2017-05-07T08:24:49.449Z,790
2017-05-07T08:26:01.982Z,855
2017-05-07T08:27:14.543Z,940
2017-05-07T08:28:26.823Z,960
2017-05-07T08:29:39.382Z,915
2017-05-07T08:30:51.916Z,910
2017-05-07T08:32:04.132Z,1015
2017-05-07T08:33:16.673Z,1135
2017-05-07T08:34:28.927Z,1185
2017-05-07T08:35:41.491Z,1205
2017-05-07T08:36:54.020Z,1225
2017-05-07T08:38:06.561Z,1205
2017-05-07T08:39:19.129Z,1170
2017-05-07T08:40:31.955Z,1135
2017-05-07T08:41:44.190Z,1090
2017-05-07T08:42:56.437Z,1030
2017-05-07T08:44:08.973Z,940
2017-05-07T08:45:21.232Z,870
2017-05-07T08:46:33.786Z,845
2017-05-07T08:47:46.058Z,850
2017-05-07T08:48:58.628Z,875
2017-05-07T08:50:11.163Z,910
2017-05-07T08:51:23.393Z,945
2017-05-07T08:52:35.633Z,925
2017-05-07T08:53:48.183Z,905
2017-05-07T08:55:00.747Z,915
2017-05-07T08:56:12.670Z,940
2017-05-07T08:57:24.901Z,985
2017-05-07T08:58:37.420Z,1025
2017-05-07T08:59:49.663Z,1060
2017-05-07T09:01:02.203Z,1095
2017-05-07T09:02:14.125Z,1130
2017-05-07T09:03:26.706Z,1220
2017-05-07T09:04:39.263Z,1310
2017-05-07T09:05:51.809Z,1385
2017-05-07T09:07:04.059Z,1420
2017-05-07T09:08:16.287Z,1360
2017-05-07T09:09:28.535Z,1280
2017-05-07T09:10:41.094Z,1195
2017-05-07T09:11:53.622Z,1140
2017-05-07T09:13:06.147Z,1110
2017-05-07T09:14:18.708Z,1090
2017-05-07T09:15:30.939Z,1095
2017-05-07T09:16:43.491Z,1120
2017-05-07T09:17:56.030Z,1150
2017-05-07T09:19:08.571Z,1205
2017-05-07T09:20:20.848Z,1315
2017-05-07T09:21:33.082Z,1410
2017-05-07T09:22:45.302Z,1465
2017-05-07T09:23:57.839Z,1590
2017-05-07T09:25:10.081Z,1620
2017-05-07T09:26:22.026Z,1620
2017-05-07T09:27:34.561Z,1605
2017-05-07T09:28:47.139Z,2180
2017-05-07T09:29:59.681Z,1605
2017-05-07T09:31:12.205Z,1465
2017-05-07T09:32:24.458Z,1410
2017-05-07T09:33:37.015Z,1305
2017-05-07T09:34:49.247Z,1160
2017-05-07T09:36:01.493Z,1055
2017-05-07T09:37:14.053Z,945
2017-05-07T09:38:26.661Z,830
2017-05-07T09:39:38.902Z,735
2017-05-07T09:40:51.449Z,670
2017-05-07T09:42:03.987Z,630
2017-05-07T09:43:16.240Z,620
2017-05-07T09:44:28.782Z,615
2017-05-07T09:45:41.338Z,605
2017-05-07T09:46:53.874Z,595
2017-05-07T09:48:06.424Z,580
2017-05-07T09:49:18.971Z,570
2017-05-07T09:50:31.515Z,565
2017-05-07T09:51:44.040Z,555
2017-05-07T09:52:56.309Z,550
2017-05-07T09:54:08.831Z,550
2017-05-07T09:55:21.053Z,575
2017-05-07T09:56:33.312Z,610
2017-05-07T09:57:45.861Z,630
2017-05-07T09:58:58.117Z,640
2017-05-07T10:00:10.361Z,645
2017-05-07T10:01:22.570Z,645
2017-05-07T10:02:34.804Z,645
2017-05-07T10:03:47.373Z,650
2017-05-07T10:04:59.635Z,645
2017-05-07T10:06:11.287Z,650
2017-05-07T10:07:23.786Z,660
2017-05-07T10:08:35.733Z,670
2017-05-07T10:09:47.974Z,690
2017-05-07T10:11:00.224Z,720
2017-05-07T10:12:12.163Z,755
2017-05-07T10:13:24.684Z,785
2017-05-07T10:14:37.233Z,820
2017-05-07T10:15:49.175Z,855
2017-05-07T10:17:01.404Z,890
2017-05-07T10:18:13.947Z,1045
2017-05-07T10:19:26.196Z,1160
2017-05-07T10:20:38.739Z,3725
2017-05-07T10:21:51.289Z,3730
2017-05-07T10:23:03.838Z,3900
2017-05-07T10:24:16.393Z,3430
2017-05-07T10:25:28.667Z,3775
2017-05-07T10:26:40.885Z,3650
2017-05-07T10:27:53.431Z,3880
2017-05-07T10:29:05.985Z,3700
2017-05-07T10:30:18.514Z,3710
2017-05-07T10:31:31.073Z,4030
2017-05-07T10:32:43.623Z,4005
2017-05-07T10:33:56.145Z,3635
2017-05-07T10:35:08.683Z,3700
2017-05-07T10:36:21.216Z,3575
2017-05-07T10:37:33.736Z,3600
2017-05-07T10:38:46.278Z,3690
2017-05-07T10:39:59.141Z,3805
2017-05-07T10:41:11.701Z,3540
2017-05-07T10:42:24.254Z,1620
2017-05-07T10:43:36.788Z,3690
2017-05-07T10:44:49.024Z,3890
2017-05-07T10:46:01.553Z,3835
2017-05-07T10:47:14.091Z,3415
2017-05-07T10:48:26.665Z,4235
2017-05-07T10:49:39.215Z,3480
2017-05-07T10:50:51.770Z,3990
2017-05-07T10:52:04.324Z,1800
2017-05-07T10:53:16.285Z,3345
2017-05-07T10:54:28.849Z,2050
2017-05-07T10:55:41.372Z,2245
2017-05-07T10:56:53.919Z,3930
2017-05-07T10:58:05.862Z,3930
2017-05-07T10:59:17.782Z,3815
2017-05-07T11:00:30.350Z,3575
2017-05-07T11:01:42.874Z,3690
2017-05-07T11:02:55.420Z,3675
2017-05-07T11:04:07.694Z,3755
2017-05-07T11:05:19.966Z,3495
2017-05-07T11:06:32.541Z,3115
2017-05-07T11:07:45.104Z,3115
2017-05-07T11:08:57.653Z,3120
2017-05-07T11:10:09.896Z,3460
2017-05-07T11:11:22.148Z,3800
2017-05-07T11:12:34.391Z,3405
2017-05-07T11:13:46.962Z,2255
2017-05-07T11:14:59.511Z,2980
2017-05-07T11:16:11.750Z,2930
2017-05-07T11:17:24.021Z,2585
2017-05-07T11:18:36.576Z,2265
2017-05-07T11:19:49.142Z,2340
2017-05-07T11:21:01.709Z,1860
2017-05-07T11:22:14.279Z,2470
2017-05-07T11:23:26.853Z,2360
2017-05-07T11:24:39.083Z,2575
2017-05-07T11:25:51.644Z,1930
2017-05-07T11:27:04.189Z,3115
2017-05-07T11:28:16.456Z,2910
2017-05-07T11:29:29.027Z,2485
2017-05-07T11:30:41.253Z,2360
2017-05-07T11:31:53.797Z,2395
2017-05-07T11:33:06.362Z,2335
2017-05-07T11:34:18.638Z,2365
2017-05-07T11:35:31.188Z,2470
2017-05-07T11:36:43.735Z,2340
2017-05-07T11:37:56.306Z,2305
2017-05-07T11:39:08.551Z,2430
2017-05-07T11:40:21.090Z,2470
2017-05-07T11:41:33.031Z,2370
2017-05-07T11:42:45.578Z,2420
2017-05-07T11:43:57.849Z,2520
2017-05-07T11:45:10.677Z,2920
2017-05-07T11:46:22.926Z,2975
2017-05-07T11:47:35.512Z,2870
2017-05-07T11:48:48.093Z,2590
2017-05-07T11:50:00.667Z,2785
2017-05-07T11:51:12.931Z,3575
2017-05-07T11:52:25.182Z,3340
2017-05-07T11:53:37.445Z,4395
2017-05-07T11:54:49.698Z,3980
2017-05-07T11:56:02.287Z,4155
2017-05-07T11:57:14.558Z,4460
2017-05-07T11:58:27.108Z,4470
2017-05-07T11:59:39.631Z,4265
2017-05-07T12:00:52.454Z,4085
2017-05-07T12:02:04.725Z,4080
2017-05-07T12:03:16.708Z,3730
2017-05-07T12:04:29.270Z,3660
2017-05-07T12:05:41.850Z,3295
2017-05-07T12:06:54.400Z,2205
2017-05-07T12:08:06.953Z,3520
2017-05-07T12:09:19.501Z,4995
2017-05-07T12:10:32.088Z,5400
2017-05-07T12:11:44.662Z,5805
2017-05-07T12:12:57.208Z,5475
2017-05-07T12:14:09.755Z,5445
2017-05-07T12:15:22.006Z,5200
2017-05-07T12:16:34.563Z,4730
2017-05-07T12:17:47.417Z,4375
2017-05-07T12:18:59.680Z,4665
2017-05-07T12:20:12.259Z,2770
2017-05-07T12:21:24.824Z,2855
2017-05-07T12:22:37.350Z,5070
2017-05-07T12:23:49.889Z,4510
2017-05-07T12:25:02.135Z,4960
2017-05-07T12:26:14.393Z,4760
2017-05-07T12:27:26.984Z,4995
2017-05-07T12:28:39.530Z,5190
2017-05-07T12:29:52.076Z,5095
2017-05-07T12:31:04.327Z,5105
2017-05-07T12:32:16.270Z,4780
2017-05-07T12:33:28.839Z,4870
2017-05-07T12:34:41.388Z,4985
2017-05-07T12:35:53.935Z,5025
2017-05-07T12:37:06.197Z,4940
2017-05-07T12:38:18.798Z,4165
2017-05-07T12:39:30.747Z,3495
2017-05-07T12:40:43.311Z,2075
2017-05-07T12:41:55.889Z,1995
2017-05-07T12:43:08.172Z,2085
2017-05-07T12:44:20.422Z,4120
2017-05-07T12:45:32.673Z,2480
2017-05-07T12:46:45.194Z,2130
2017-05-07T12:47:57.492Z,2660
2017-05-07T12:49:09.760Z,4640
2017-05-07T12:50:21.983Z,4675
2017-05-07T12:51:34.230Z,4930
2017-05-07T12:52:46.778Z,5300
2017-05-07T12:53:59.343Z,4530
2017-05-07T12:55:11.583Z,5135
2017-05-07T12:56:24.136Z,4885
2017-05-07T12:57:36.683Z,4715
2017-05-07T12:58:49.228Z,4745
2017-05-07T13:00:01.779Z,4275
2017-05-07T13:01:14.020Z,2615
2017-05-07T13:02:26.295Z,2845
2017-05-07T13:03:38.888Z,3355
2017-05-07T13:04:51.438Z,5180
2017-05-07T13:06:03.704Z,5090
2017-05-07T13:07:16.243Z,5220
2017-05-07T13:08:28.791Z,5075
2017-05-07T13:09:41.341Z,4880
2017-05-07T13:10:53.885Z,4640
2017-05-07T13:12:06.137Z,4590
2017-05-07T13:13:18.429Z,4455
2017-05-07T13:14:30.968Z,4065
2017-05-07T13:15:43.242Z,4500
2017-05-07T13:16:55.812Z,4365
2017-05-07T13:18:08.342Z,4360
2017-05-07T13:19:20.608Z,4395
2017-05-07T13:20:33.155Z,4560
2017-05-07T13:21:45.403Z,4265
2017-05-07T13:22:57.964Z,4325
2017-05-07T13:24:10.514Z,4295
2017-05-07T13:25:22.763Z,4200
2017-05-07T13:26:35.309Z,4350
2017-05-07T13:27:47.847Z,4445
2017-05-07T13:28:59.793Z,4450
2017-05-07T13:30:11.747Z,4375
2017-05-07T13:31:24.325Z,3715
2017-05-07T13:32:36.895Z,4190
2017-05-07T13:33:49.439Z,4200
2017-05-07T13:35:02.009Z,4415
2017-05-07T13:36:14.293Z,4445
2017-05-07T13:37:26.549Z,4180
2017-05-07T13:38:38.774Z,4135
2017-05-07T13:39:51.339Z,4075
2017-05-07T13:41:03.892Z,3790
2017-05-07T13:42:16.452Z,3850
2017-05-07T13:43:29.030Z,3900
2017-05-07T13:44:41.577Z,3970
2017-05-07T13:45:54.098Z,4320
2017-05-07T13:47:06.661Z,4160
2017-05-07T13:48:19.215Z,4195
2017-05-07T13:49:31.778Z,4245
2017-05-07T13:50:44.330Z,4230
2017-05-07T13:51:56.876Z,4230
2017-05-07T13:53:09.440Z,4175
2017-05-07T13:54:21.693Z,4215
2017-05-07T13:55:33.911Z,4015
2017-05-07T13:56:46.477Z,3975
2017-05-07T13:57:58.453Z,3860
2017-05-07T13:59:11.026Z,3835
2017-05-07T14:00:23.574Z,3765
2017-05-07T14:01:36.133Z,3540
2017-05-07T14:02:48.714Z,3390
2017-05-07T14:04:01.260Z,3030
2017-05-07T14:05:13.222Z,3090
2017-05-07T14:06:25.775Z,3110
2017-05-07T14:07:38.025Z,3390
2017-05-07T14:08:50.270Z,3505
2017-05-07T14:10:02.832Z,3225
2017-05-07T14:11:15.112Z,3105
2017-05-07T14:12:27.670Z,2930
2017-05-07T14:13:39.617Z,3235
2017-05-07T14:14:52.220Z,3220
2017-05-07T14:16:04.767Z,3180
2017-05-07T14:17:16.988Z,3125
2017-05-07T14:18:29.537Z,2940
2017-05-07T14:19:41.760Z,2955
2017-05-07T14:20:54.327Z,2975
2017-05-07T14:22:06.862Z,3140
2017-05-07T14:23:18.826Z,3195
2017-05-07T14:24:31.067Z,3150
2017-05-07T14:25:43.626Z,3135
2017-05-07T14:26:56.230Z,3070
2017-05-07T14:28:08.804Z,3175
2017-05-07T14:29:20.749Z,3005
2017-05-07T14:30:32.992Z,2765
2017-05-07T14:31:45.542Z,2635
2017-05-07T14:32:58.065Z,2790
2017-05-07T14:34:10.633Z,2885
2017-05-07T14:35:22.294Z,2495
2017-05-07T14:36:34.851Z,975
2017-05-07T14:37:46.493Z,555
2017-05-07T14:38:59.020Z,345
2017-05-07T14:40:11.277Z,340
2017-05-07T14:41:23.826Z,345
2017-05-07T14:42:36.377Z,340
2017-05-07T14:43:48.922Z,340
2017-05-07T14:45:01.472Z,340
2017-05-07T14:46:13.714Z,340
2017-05-07T14:47:26.259Z,395
2017-05-07T14:48:38.531Z,365
2017-05-07T14:49:51.106Z,350
2017-05-07T14:51:03.365Z,380
2017-05-07T14:52:15.912Z,455
2017-05-07T14:53:28.140Z,560
2017-05-07T14:54:40.681Z,440
2017-05-07T14:55:53.233Z,335
2017-05-07T14:57:05.445Z,335
2017-05-07T14:58:18.001Z,325
2017-05-07T14:59:30.248Z,325
2017-05-07T15:00:42.511Z,320
2017-05-07T15:01:55.040Z,320
2017-05-07T15:03:07.583Z,315
2017-05-07T15:04:20.104Z,315
2017-05-07T15:05:32.653Z,315
2017-05-07T15:06:44.900Z,320
2017-05-07T15:07:55.945Z,330
2017-05-07T15:09:08.212Z,335
2017-05-07T15:10:20.754Z,330
2017-05-07T15:11:33.304Z,325
2017-05-07T15:12:45.842Z,315
2017-05-07T15:13:58.466Z,310
2017-05-07T15:15:10.995Z,305
2017-05-07T15:16:23.263Z,305
2017-05-07T15:17:35.789Z,305
2017-05-07T15:18:47.178Z,305
2017-05-07T15:19:58.549Z,305
2017-05-07T15:21:10.190Z,300
2017-05-07T15:22:21.839Z,300
2017-05-07T15:23:34.065Z,300
2017-05-07T15:24:45.413Z,300
2017-05-07T15:25:57.335Z,315
2017-05-07T15:27:09.279Z,320
2017-05-07T15:28:20.949Z,320
2017-05-07T15:29:32.876Z,315
2017-05-07T15:30:44.832Z,325
2017-05-07T15:31:56.464Z,345
2017-05-07T15:33:07.751Z,375
2017-05-07T15:34:18.567Z,395
2017-05-07T15:35:29.335Z,410
2017-05-07T15:36:40.739Z,400
2017-05-07T15:37:52.431Z,375
2017-05-07T15:39:04.062Z,340
2017-05-07T15:40:15.681Z,315
2017-05-07T15:41:26.761Z,310
2017-05-07T15:42:38.393Z,305
2017-05-07T15:43:50.650Z,315
2017-05-07T15:45:01.969Z,310
2017-05-07T15:46:14.202Z,325
2017-05-07T15:47:25.856Z,390
2017-05-07T15:48:36.908Z,395
2017-05-07T15:49:47.941Z,435
2017-05-07T15:51:00.226Z,435
2017-05-07T15:52:12.495Z,420
2017-05-07T15:53:25.033Z,345
2017-05-07T15:54:37.575Z,315
2017-05-07T15:55:49.224Z,280
2017-05-07T15:57:00.277Z,260
2017-05-07T15:58:11.669Z,250
2017-05-07T15:59:23.616Z,250
2017-05-07T16:00:36.167Z,250
2017-05-07T16:01:47.828Z,245
2017-05-07T16:02:58.849Z,245
2017-05-07T16:04:09.599Z,245
2017-05-07T16:05:20.653Z,240
2017-05-07T16:06:32.897Z,240
2017-05-07T16:07:44.492Z,235
2017-05-07T16:08:55.533Z,245
2017-05-07T16:10:06.573Z,240
2017-05-07T16:11:17.585Z,240
2017-05-07T16:12:28.925Z,245
2017-05-07T16:13:41.172Z,255
2017-05-07T16:14:53.732Z,250
2017-05-07T16:16:06.285Z,250
2017-05-07T16:17:18.827Z,240
2017-05-07T16:18:31.344Z,235
2017-05-07T16:19:43.877Z,225
2017-05-07T16:20:56.443Z,220
2017-05-07T16:22:08.682Z,225
2017-05-07T16:23:21.228Z,230
2017-05-07T16:24:33.757Z,225
2017-05-07T16:25:46.306Z,220
2017-05-07T16:26:58.873Z,210
2017-05-07T16:28:10.797Z,210
2017-05-07T16:29:21.842Z,215
2017-05-07T16:30:32.879Z,220
2017-05-07T16:31:43.973Z,215
2017-05-07T16:32:55.035Z,210
2017-05-07T16:34:06.394Z,210
2017-05-07T16:35:17.222Z,210
2017-05-07T16:36:27.941Z,210
2017-05-07T16:37:39.290Z,205
2017-05-07T16:38:50.936Z,205
2017-05-07T16:40:01.979Z,205
2017-05-07T16:41:13.307Z,200